createdAt,value
2018-12-07T13:23:42.193Z,0.30
2018-12-07T13:26:13.242Z,0.60
2018-12-07T13:28:43.212Z,0.50
2018-12-07T13:31:14.018Z,0.50
2018-12-07T13:33:45.795Z,0.50
2018-12-07T13:36:15.168Z,0.40
2018-12-07T13:38:44.806Z,0.40
2018-12-07T13:41:15.042Z,0.70
2018-12-07T13:43:44.404Z,0.70
2018-12-07T13:46:14.305Z,0.80
2018-12-07T13:48:45.597Z,0.70
2018-12-07T13:51:14.754Z,0.70
2018-12-07T13:53:44.188Z,0.50
2018-12-07T13:56:16.354Z,0.87
2018-12-07T13:58:43.101Z,0.90
2018-12-07T14:01:12.402Z,0.70
2018-12-07T14:03:41.784Z,0.70
2018-12-07T14:06:11.121Z,1.20
2018-12-07T14:08:40.655Z,0.70
2018-12-07T14:11:09.926Z,0.80
2018-12-07T14:13:39.583Z,1.20
2018-12-07T14:16:08.896Z,0.63
2018-12-07T14:18:38.288Z,0.90
2018-12-07T14:21:07.776Z,1.00
2018-12-07T14:23:37.406Z,0.80
2018-12-07T14:26:06.894Z,1.00
2018-12-07T14:28:40.672Z,0.83
2018-12-07T14:31:10.002Z,0.90
2018-12-07T14:33:39.532Z,1.03
2018-12-07T14:36:08.908Z,0.77
2018-12-07T14:38:38.784Z,0.87
2018-12-07T14:41:09.184Z,0.77
2018-12-07T14:43:39.480Z,0.70
2018-12-07T14:46:09.866Z,0.90
2018-12-07T14:48:40.276Z,0.90
2018-12-07T14:51:09.775Z,0.90
2018-12-07T14:53:39.357Z,1.30
2018-12-07T14:56:08.843Z,1.07
2018-12-07T14:58:38.114Z,1.33
2018-12-07T15:01:07.636Z,0.83
2018-12-07T15:03:37.149Z,0.83
2018-12-07T15:06:06.814Z,0.97
2018-12-07T15:08:36.123Z,0.70
2018-12-07T15:11:05.523Z,1.23
2018-12-07T15:13:34.821Z,0.80
2018-12-07T15:16:04.263Z,0.93
2018-12-07T15:18:33.808Z,0.83
2018-12-07T15:21:02.998Z,1.00
2018-12-07T15:23:32.450Z,0.83
2018-12-07T15:26:01.759Z,0.97
2018-12-07T15:28:31.380Z,1.37
2018-12-07T15:31:00.704Z,0.60
2018-12-07T15:33:30.049Z,0.80
2018-12-07T15:35:59.543Z,0.70
2018-12-07T15:38:28.974Z,0.70
2018-12-07T15:40:58.587Z,0.63
2018-12-07T15:43:28.038Z,1.10
2018-12-07T15:45:57.413Z,1.03
2018-12-07T15:48:26.738Z,1.03
2018-12-07T15:50:56.364Z,1.10
2018-12-07T15:53:25.952Z,1.30
2018-12-07T15:55:55.737Z,1.20
2018-12-07T15:58:25.597Z,1.20
2018-12-07T16:00:55.553Z,1.10
2018-12-07T16:03:25.232Z,1.20
2018-12-07T16:05:55.090Z,1.07
2018-12-07T16:08:25.320Z,1.30
2018-12-07T16:10:54.660Z,1.20
2018-12-07T16:13:24.361Z,1.50
2018-12-07T16:15:53.756Z,1.60
2018-12-07T16:18:43.039Z,1.43
2018-12-07T16:21:14.349Z,1.20
2018-12-07T16:23:44.152Z,1.13
2018-12-07T16:26:13.855Z,1.50
2018-12-07T16:28:43.240Z,1.70
2018-12-07T16:31:13.122Z,1.80
2018-12-07T16:33:42.472Z,1.50
2018-12-07T16:36:11.808Z,1.57
2018-12-07T16:38:41.419Z,1.57
2018-12-07T16:41:10.770Z,2.37
2018-12-07T16:43:40.029Z,1.87
2018-12-07T16:46:09.522Z,1.87
2018-12-07T16:48:38.865Z,2.27
2018-12-07T16:51:08.172Z,2.23
2018-12-07T16:53:37.663Z,2.00
2018-12-07T16:56:07.103Z,2.43
2018-12-07T16:58:36.538Z,1.80
2018-12-07T17:01:06.057Z,2.00
2018-12-07T17:03:35.608Z,1.50
2018-12-07T17:06:09.630Z,1.83
2018-12-07T17:08:39.232Z,2.10
2018-12-07T17:11:08.693Z,1.83
2018-12-07T17:13:37.924Z,1.70
2018-12-07T17:16:07.403Z,2.13
2018-12-07T17:18:36.751Z,2.13
2018-12-07T17:21:06.242Z,2.50
2018-12-07T17:23:35.837Z,2.63
2018-12-07T17:26:04.986Z,2.03
2018-12-07T17:28:34.498Z,2.17
2018-12-07T17:31:03.982Z,1.47
2018-12-07T17:33:33.297Z,1.90
2018-12-07T17:36:02.748Z,2.17
2018-12-07T17:38:32.055Z,2.33
2018-12-07T17:41:01.439Z,2.00
2018-12-07T17:43:30.788Z,3.00
2018-12-07T17:46:00.193Z,2.80
2018-12-07T17:48:29.699Z,3.30
2018-12-07T17:50:59.185Z,4.27
2018-12-07T17:53:28.516Z,2.90
2018-12-07T17:55:58.674Z,2.50
2018-12-07T17:58:28.295Z,3.43
2018-12-07T18:00:57.675Z,2.97
2018-12-07T18:03:27.103Z,3.10
2018-12-07T18:05:56.465Z,2.17
2018-12-07T18:08:26.238Z,1.80
2018-12-07T18:10:57.899Z,1.70
2018-12-07T18:13:27.898Z,1.80
2018-12-07T18:15:57.401Z,1.77
2018-12-07T18:18:28.646Z,1.30
2018-12-07T18:20:58.244Z,1.30
2018-12-07T18:23:28.109Z,1.40
2018-12-07T18:25:57.844Z,1.83
2018-12-07T18:28:27.075Z,2.30
2018-12-07T18:30:56.624Z,2.20
2018-12-07T18:33:26.038Z,1.90
2018-12-07T18:35:55.387Z,2.10
2018-12-07T18:38:24.981Z,1.77
2018-12-07T18:40:54.347Z,1.67
2018-12-07T18:43:23.693Z,1.90
2018-12-07T18:45:52.958Z,1.73
2018-12-07T18:48:22.489Z,1.90
2018-12-07T18:50:54.255Z,1.67
2018-12-07T18:53:24.191Z,1.97
2018-12-07T18:55:55.253Z,2.03
2018-12-07T18:58:26.083Z,1.90
2018-12-07T19:00:56.876Z,1.73
2018-12-07T19:03:30.523Z,1.73
2018-12-07T19:06:04.372Z,1.80
2018-12-07T19:08:37.133Z,2.27
2018-12-07T19:11:07.280Z,2.37
2018-12-07T19:13:37.098Z,2.30
2018-12-07T19:16:06.472Z,2.27
2018-12-07T19:18:38.435Z,2.30
2018-12-07T19:21:10.320Z,2.40
2018-12-07T19:23:40.130Z,2.40
2018-12-07T19:26:09.691Z,2.40
2018-12-07T19:28:39.436Z,2.50
2018-12-07T19:31:11.095Z,2.40
2018-12-07T19:33:40.736Z,2.60
2018-12-07T19:36:10.333Z,2.10
2018-12-07T19:38:41.310Z,2.40
2018-12-07T19:41:13.060Z,2.47
2018-12-07T19:43:43.103Z,2.70
2018-12-07T19:46:12.430Z,2.43
2018-12-07T19:48:42.146Z,2.50
2018-12-07T19:51:11.780Z,2.17
2018-12-07T19:53:41.871Z,2.27
2018-12-07T19:56:12.507Z,2.60
2018-12-07T19:58:43.991Z,2.40
2018-12-07T20:01:14.173Z,2.27
2018-12-07T20:03:43.430Z,2.20
2018-12-07T20:06:14.847Z,2.10
2018-12-07T20:08:45.499Z,1.80
2018-12-07T20:11:14.619Z,2.13
2018-12-07T20:13:52.404Z,2.00
2018-12-07T20:16:22.669Z,2.03
2018-12-07T20:18:52.371Z,2.10
2018-12-07T20:21:22.906Z,1.60
2018-12-07T20:23:54.298Z,1.90
2018-12-07T20:26:23.778Z,1.60
2018-12-07T20:28:53.536Z,1.90
2018-12-07T20:31:22.977Z,1.90
2018-12-07T20:33:53.327Z,1.67
2018-12-07T20:36:22.993Z,1.57
2018-12-07T20:38:52.648Z,2.00
2018-12-07T20:41:23.337Z,2.10
2018-12-07T20:43:53.940Z,2.00
2018-12-07T20:46:22.730Z,1.77
2018-12-07T20:48:54.300Z,1.87
2018-12-07T20:51:26.232Z,1.50
2018-12-07T20:53:58.248Z,1.60
2018-12-07T20:56:27.983Z,1.73
2018-12-07T20:58:57.899Z,1.70
2018-12-07T21:01:27.430Z,1.87
2018-12-07T21:04:36.448Z,1.63
2018-12-07T21:07:55.400Z,1.67
2018-12-07T21:11:15.608Z,1.37
2018-12-07T21:14:32.447Z,1.30
2018-12-07T21:17:11.858Z,1.20
2018-12-07T21:19:52.768Z,1.27
2018-12-07T21:22:24.971Z,1.03
2018-12-07T21:24:56.236Z,1.00
2018-12-07T21:27:31.679Z,1.00
2018-12-07T21:30:57.007Z,1.00
2018-12-07T21:46:31.623Z,0.70
2018-12-07T21:49:01.188Z,0.60
2018-12-07T21:52:14.908Z,0.60
2018-12-07T21:54:44.078Z,0.57
2018-12-07T21:57:13.613Z,0.60
2018-12-07T21:59:43.018Z,0.53
2018-12-07T22:02:13.036Z,0.40
2018-12-07T22:04:43.327Z,0.60
2018-12-07T22:07:12.613Z,0.40
2018-12-07T22:09:42.271Z,0.60
2018-12-07T22:12:11.644Z,0.40
2018-12-07T22:14:41.639Z,0.40
2018-12-07T22:17:11.367Z,0.50
2018-12-07T22:19:40.889Z,0.40
2018-12-07T22:22:10.574Z,0.30
2018-12-07T22:24:40.287Z,0.43
2018-12-07T22:27:09.796Z,0.40
2018-12-07T22:29:39.432Z,0.40
2018-12-07T22:32:09.944Z,0.60
2018-12-07T22:34:39.506Z,0.53
2018-12-07T22:37:08.851Z,0.60
2018-12-07T22:39:38.190Z,1.00
2018-12-07T22:42:07.751Z,0.30
2018-12-07T22:44:37.415Z,0.40
2018-12-07T22:47:06.809Z,0.30
2018-12-07T22:49:36.190Z,0.40
2018-12-07T22:52:06.186Z,0.30
2018-12-07T22:54:35.573Z,0.40
2018-12-07T22:57:04.907Z,0.30
2018-12-07T22:59:34.236Z,0.40
2018-12-07T23:02:03.659Z,0.40
2018-12-07T23:04:33.014Z,0.20
2018-12-07T23:07:02.392Z,0.40
2018-12-07T23:09:31.818Z,0.30
2018-12-07T23:12:01.153Z,0.20
2018-12-07T23:14:30.630Z,0.20
2018-12-07T23:16:59.970Z,0.20
2018-12-07T23:19:29.340Z,0.30
2018-12-07T23:21:58.705Z,0.37
2018-12-07T23:24:28.062Z,1.00
2018-12-07T23:26:57.458Z,0.50
2018-12-07T23:29:26.778Z,0.60
2018-12-07T23:31:56.174Z,0.60
2018-12-07T23:34:25.537Z,0.50
2018-12-07T23:36:54.882Z,0.40
2018-12-07T23:39:24.181Z,0.33
2018-12-07T23:41:53.580Z,0.33
2018-12-07T23:44:22.920Z,0.33
2018-12-07T23:46:52.357Z,0.40
2018-12-07T23:49:21.819Z,0.37
2018-12-07T23:51:52.598Z,0.30
2018-12-07T23:54:22.442Z,0.40
2018-12-07T23:56:51.815Z,0.50
2018-12-07T23:59:21.976Z,0.73
